Novo Imperador — CULB-7 — position and weather

sailwx.info

Track history (hours):
 
Tides and Currents Weather Stations Pressure Air Temp Water Temp Dewpoint Dewpoint Depression Visibility Wind Speed Wind Dir Waves Ship Positions

Novo Imperador

Last reported at 2017-Sep-20 03:13 UTC. Time now 2017-Sep-21 01:22 UTC.
Position N 38°26' W 009°07'.

Length 18 m.

MMSI: 204267000.

Date/timePositionNaut miles runAvg speedWind from/ knotsBaromVisibWave heightAir tempDewpointWater temp
2017-Sep-20 03:13N 38°26' W 009°07'0 0.1
2017-Sep-20 02:59N 38°26' W 009°07'0 0.1
2017-Sep-20 02:30N 38°26' W 009°07'2 3.7
2017-Sep-20 01:59N 38°25' W 009°09'4 8.2
2017-Sep-20 01:30N 38°24' W 009°14'4 8.5
2017-Sep-20 01:00N 38°25' W 009°19'4 8.7
2017-Sep-20 00:30N 38°27' W 009°24'4 8.9
2017-Sep-20 00:00N 38°29' W 009°29'5 9.0
2017-Sep-19 23:30N 38°32' W 009°34'4 8.6
2017-Sep-19 23:00N 38°34' W 009°38'4 8.7
2017-Sep-19 22:30N 38°37' W 009°43'4 8.5
2017-Sep-19 22:00N 38°39' W 009°48'10 0.5
2017-Sep-19 03:24N 38°46' W 009°55'3 8.3
2017-Sep-19 03:00N 38°45' W 009°52'4 8.3
2017-Sep-19 02:31N 38°42' W 009°47'4 8.5
2017-Sep-19 02:00N 38°40' W 009°43'4 8.5
2017-Sep-19 01:30N 38°38' W 009°38'4 8.8
2017-Sep-19 01:00N 38°35' W 009°34'4 8.6
2017-Sep-19 00:30N 38°33' W 009°29'4 8.4
2017-Sep-19 00:01N 38°30' W 009°25'5 8.7
2017-Sep-18 23:30N 38°28' W 009°20'4 8.5
2017-Sep-18 23:00N 38°25' W 009°15'5 7.9
2017-Sep-18 22:23N 38°25' W 009°09'2 5.7
2017-Sep-18 22:01N 38°26' W 009°07'0 0.1
2017-Sep-18 21:31N 38°26' W 009°07'0 0.0
2017-Sep-18 09:19N 38°26' W 009°07'0 0.0
2017-Sep-18 05:02N 38°26' W 009°07'0 2.6
2017-Sep-18 04:59N 38°26' W 009°07'0 0.0
2017-Sep-18 04:30N 38°26' W 009°07'1 2.3
2017-Sep-18 04:00N 38°26' W 009°08'4 8.4
2017-Sep-18 03:30N 38°24' W 009°13'5 8.6
2017-Sep-18 02:58N 38°26' W 009°18'4 9.0
2017-Sep-18 02:30N 38°28' W 009°23'4 8.9
2017-Sep-18 02:00N 38°30' W 009°28'4 8.5
2017-Sep-18 01:30N 38°33' W 009°33'4 8.7
2017-Sep-18 01:00N 38°35' W 009°38'4 8.8
2017-Sep-18 00:30N 38°37' W 009°42'4 9.0
2017-Sep-18 00:00N 38°40' W 009°47'7 0.3
2017-Sep-17 03:14N 38°46' W 009°52'2 8.1
2017-Sep-17 03:00N 38°45' W 009°50'4 7.8
2017-Sep-17 02:30N 38°43' W 009°46'4 7.7
2017-Sep-17 02:01N 38°40' W 009°42'4 8.0
2017-Sep-17 01:30N 38°38' W 009°37'4 8.1
2017-Sep-17 01:00N 38°36' W 009°33'4 8.1
2017-Sep-17 00:31N 38°33' W 009°29'4 8.2
2017-Sep-17 00:00N 38°31' W 009°25'4 8.4
2017-Sep-16 23:30N 38°28' W 009°20'4 8.4
2017-Sep-16 23:00N 38°26' W 009°16'6 7.8
2017-Sep-16 22:13N 38°26' W 009°08'2 7.1
2017-Sep-16 22:00N 38°26' W 009°07'0 0.0
2017-Sep-15 11:04N 38°26' W 009°07'0 0.0
2017-Sep-15 11:00N 38°26' W 009°07'0 0.0
2017-Sep-15 10:28N 38°26' W 009°07'0 0.0
2017-Sep-15 09:45N 38°26' W 009°07'0 0.0
2017-Sep-15 09:30N 38°26' W 009°07'0 0.0
2017-Sep-14 04:15N 38°26' W 009°07'0 0.1
2017-Sep-14 03:58N 38°26' W 009°07'6 5.2
2017-Sep-14 02:54N 38°24' W 009°13'3 8.5
2017-Sep-14 02:31N 38°24' W 009°18'4 8.7
2017-Sep-14 02:00N 38°26' W 009°23'5 8.6
2017-Sep-14 01:26N 38°28' W 009°28'4 8.7
2017-Sep-14 00:58N 38°30' W 009°33'4 8.5
2017-Sep-14 00:29N 38°32' W 009°37'4 9.0
2017-Sep-14 00:00N 38°35' W 009°42'4 8.9
2017-Sep-13 23:30N 38°37' W 009°47'4 8.9
2017-Sep-13 23:01N 38°40' W 009°51'9 0.4
2017-Sep-13 01:46N 38°38' W 009°40'2 6.9
2017-Sep-13 01:30N 38°38' W 009°38'3 6.9
2017-Sep-13 01:01N 38°36' W 009°34'4 7.4
2017-Sep-13 00:30N 38°34' W 009°30'4 7.9
2017-Sep-13 00:00N 38°31' W 009°26'4 8.5
2017-Sep-12 23:30N 38°29' W 009°22'4 8.6
2017-Sep-12 23:00N 38°27' W 009°17'4 8.6
2017-Sep-12 22:30N 38°24' W 009°13'4 8.7
2017-Sep-12 22:00N 38°26' W 009°07'1 0.0
2017-Sep-12 05:22N 38°26' W 009°07'0 0.2
2017-Sep-12 05:00N 38°26' W 009°07'2 3.1
2017-Sep-12 04:30N 38°25' W 009°08'4 8.6
2017-Sep-12 04:00N 38°24' W 009°14'4 8.8
2017-Sep-12 03:30N 38°25' W 009°19'4 8.8
2017-Sep-12 03:01N 38°26' W 009°25'4 8.6
2017-Sep-12 02:30N 38°27' W 009°30'5 8.8
2017-Sep-12 01:59N 38°30' W 009°35'4 9.0
2017-Sep-12 01:30N 38°32' W 009°39'5 9.2
2017-Sep-12 01:00N 38°35' W 009°44'4 9.0
2017-Sep-12 00:30N 38°38' W 009°48'5 0.3
2017-Sep-11 04:09N 38°43' W 009°51'1 7.6
2017-Sep-11 04:00N 38°42' W 009°49'4 7.6
2017-Sep-11 03:31N 38°40' W 009°45'4 7.6
2017-Sep-11 03:00N 38°38' W 009°41'4 7.7
2017-Sep-11 02:31N 38°36' W 009°37'4 7.6
2017-Sep-11 02:01N 38°34' W 009°33'4 7.8
2017-Sep-11 01:30N 38°32' W 009°29'4 8.5
2017-Sep-11 01:00N 38°30' W 009°24'4 8.7
2017-Sep-11 00:30N 38°27' W 009°19'4 8.7
2017-Sep-11 00:00N 38°25' W 009°15'5 8.2
2017-Sep-10 23:25N 38°25' W 009°08'2 3.9
2017-Sep-10 22:59N 38°26' W 009°07'0 0.0
2017-Sep-10 08:00N 38°26' W 009°07'0 0.3
2017-Sep-10 07:30N 38°26' W 009°07'4 8.1
2017-Sep-10 07:00N 38°25' W 009°11'4 8.3
2017-Sep-10 06:29N 38°26' W 009°17'4 8.8
2017-Sep-10 06:01N 38°28' W 009°21'4 8.9
2017-Sep-10 05:30N 38°30' W 009°26'4 8.5
2017-Sep-10 05:01N 38°31' W 009°31'6 9.2
2017-Sep-10 04:24N 38°34' W 009°38'3 8.9
2017-Sep-10 04:01N 38°35' W 009°42'5 9.0
2017-Sep-10 03:30N 38°37' W 009°47'  
Track history (hours):
 
Tides and Currents Weather Stations Pressure Air Temp Water Temp Dewpoint Dewpoint Depression Visibility Wind Speed Wind Dir Waves Ship Positions

Novo Imperador

Last reported at 2017-Sep-20 03:13 UTC. Time now 2017-Sep-21 01:22 UTC.
Position N 38°26' W 009°07'.

Length 18 m.

MMSI: 204267000.

Date/timePositionNaut miles runAvg speedWind from/ knotsBaromVisibWave heightAir tempDewpointWater temp
2017-Sep-20 03:13N 38°26' W 009°07'0 0.1
2017-Sep-20 02:59N 38°26' W 009°07'0 0.1
2017-Sep-20 02:30N 38°26' W 009°07'2 3.7
2017-Sep-20 01:59N 38°25' W 009°09'4 8.2
2017-Sep-20 01:30N 38°24' W 009°14'4 8.5
2017-Sep-20 01:00N 38°25' W 009°19'4 8.7
2017-Sep-20 00:30N 38°27' W 009°24'4 8.9
2017-Sep-20 00:00N 38°29' W 009°29'5 9.0
2017-Sep-19 23:30N 38°32' W 009°34'4 8.6
2017-Sep-19 23:00N 38°34' W 009°38'4 8.7
2017-Sep-19 22:30N 38°37' W 009°43'4 8.5
2017-Sep-19 22:00N 38°39' W 009°48'10 0.5
2017-Sep-19 03:24N 38°46' W 009°55'3 8.3
2017-Sep-19 03:00N 38°45' W 009°52'4 8.3
2017-Sep-19 02:31N 38°42' W 009°47'4 8.5
2017-Sep-19 02:00N 38°40' W 009°43'4 8.5
2017-Sep-19 01:30N 38°38' W 009°38'4 8.8
2017-Sep-19 01:00N 38°35' W 009°34'4 8.6
2017-Sep-19 00:30N 38°33' W 009°29'4 8.4
2017-Sep-19 00:01N 38°30' W 009°25'5 8.7
2017-Sep-18 23:30N 38°28' W 009°20'4 8.5
2017-Sep-18 23:00N 38°25' W 009°15'5 7.9
2017-Sep-18 22:23N 38°25' W 009°09'2 5.7
2017-Sep-18 22:01N 38°26' W 009°07'0 0.1
2017-Sep-18 21:31N 38°26' W 009°07'0 0.0
2017-Sep-18 09:19N 38°26' W 009°07'0 0.0
2017-Sep-18 05:02N 38°26' W 009°07'0 2.6
2017-Sep-18 04:59N 38°26' W 009°07'0 0.0
2017-Sep-18 04:30N 38°26' W 009°07'1 2.3
2017-Sep-18 04:00N 38°26' W 009°08'4 8.4
2017-Sep-18 03:30N 38°24' W 009°13'5 8.6
2017-Sep-18 02:58N 38°26' W 009°18'4 9.0
2017-Sep-18 02:30N 38°28' W 009°23'4 8.9
2017-Sep-18 02:00N 38°30' W 009°28'4 8.5
2017-Sep-18 01:30N 38°33' W 009°33'4 8.7
2017-Sep-18 01:00N 38°35' W 009°38'4 8.8
2017-Sep-18 00:30N 38°37' W 009°42'4 9.0
2017-Sep-18 00:00N 38°40' W 009°47'7 0.3
2017-Sep-17 03:14N 38°46' W 009°52'2 8.1
2017-Sep-17 03:00N 38°45' W 009°50'4 7.8
2017-Sep-17 02:30N 38°43' W 009°46'4 7.7
2017-Sep-17 02:01N 38°40' W 009°42'4 8.0
2017-Sep-17 01:30N 38°38' W 009°37'4 8.1
2017-Sep-17 01:00N 38°36' W 009°33'4 8.1
2017-Sep-17 00:31N 38°33' W 009°29'4 8.2
2017-Sep-17 00:00N 38°31' W 009°25'4 8.4
2017-Sep-16 23:30N 38°28' W 009°20'4 8.4
2017-Sep-16 23:00N 38°26' W 009°16'6 7.8
2017-Sep-16 22:13N 38°26' W 009°08'2 7.1
2017-Sep-16 22:00N 38°26' W 009°07'0 0.0
2017-Sep-15 11:04N 38°26' W 009°07'0 0.0
2017-Sep-15 11:00N 38°26' W 009°07'0 0.0
2017-Sep-15 10:28N 38°26' W 009°07'0 0.0
2017-Sep-15 09:45N 38°26' W 009°07'0 0.0
2017-Sep-15 09:30N 38°26' W 009°07'0 0.0
2017-Sep-14 04:15N 38°26' W 009°07'0 0.1
2017-Sep-14 03:58N 38°26' W 009°07'6 5.2
2017-Sep-14 02:54N 38°24' W 009°13'3 8.5
2017-Sep-14 02:31N 38°24' W 009°18'4 8.7
2017-Sep-14 02:00N 38°26' W 009°23'5 8.6
2017-Sep-14 01:26N 38°28' W 009°28'4 8.7
2017-Sep-14 00:58N 38°30' W 009°33'4 8.5
2017-Sep-14 00:29N 38°32' W 009°37'4 9.0
2017-Sep-14 00:00N 38°35' W 009°42'4 8.9
2017-Sep-13 23:30N 38°37' W 009°47'4 8.9
2017-Sep-13 23:01N 38°40' W 009°51'9 0.4
2017-Sep-13 01:46N 38°38' W 009°40'2 6.9
2017-Sep-13 01:30N 38°38' W 009°38'3 6.9
2017-Sep-13 01:01N 38°36' W 009°34'4 7.4
2017-Sep-13 00:30N 38°34' W 009°30'4 7.9
2017-Sep-13 00:00N 38°31' W 009°26'4 8.5
2017-Sep-12 23:30N 38°29' W 009°22'4 8.6
2017-Sep-12 23:00N 38°27' W 009°17'4 8.6
2017-Sep-12 22:30N 38°24' W 009°13'4 8.7
2017-Sep-12 22:00N 38°26' W 009°07'1 0.0
2017-Sep-12 05:22N 38°26' W 009°07'0 0.2
2017-Sep-12 05:00N 38°26' W 009°07'2 3.1
2017-Sep-12 04:30N 38°25' W 009°08'4 8.6
2017-Sep-12 04:00N 38°24' W 009°14'4 8.8
2017-Sep-12 03:30N 38°25' W 009°19'4 8.8
2017-Sep-12 03:01N 38°26' W 009°25'4 8.6
2017-Sep-12 02:30N 38°27' W 009°30'5 8.8
2017-Sep-12 01:59N 38°30' W 009°35'4 9.0
2017-Sep-12 01:30N 38°32' W 009°39'5 9.2
2017-Sep-12 01:00N 38°35' W 009°44'4 9.0
2017-Sep-12 00:30N 38°38' W 009°48'5 0.3
2017-Sep-11 04:09N 38°43' W 009°51'1 7.6
2017-Sep-11 04:00N 38°42' W 009°49'4 7.6
2017-Sep-11 03:31N 38°40' W 009°45'4 7.6
2017-Sep-11 03:00N 38°38' W 009°41'4 7.7
2017-Sep-11 02:31N 38°36' W 009°37'4 7.6
2017-Sep-11 02:01N 38°34' W 009°33'4 7.8
2017-Sep-11 01:30N 38°32' W 009°29'4 8.5
2017-Sep-11 01:00N 38°30' W 009°24'4 8.7
2017-Sep-11 00:30N 38°27' W 009°19'4 8.7
2017-Sep-11 00:00N 38°25' W 009°15'5 8.2
2017-Sep-10 23:25N 38°25' W 009°08'2 3.9
2017-Sep-10 22:59N 38°26' W 009°07'0 0.0
2017-Sep-10 08:00N 38°26' W 009°07'0 0.3
2017-Sep-10 07:30N 38°26' W 009°07'4 8.1
2017-Sep-10 07:00N 38°25' W 009°11'4 8.3
2017-Sep-10 06:29N 38°26' W 009°17'4 8.8
2017-Sep-10 06:01N 38°28' W 009°21'4 8.9
2017-Sep-10 05:30N 38°30' W 009°26'4 8.5
2017-Sep-10 05:01N 38°31' W 009°31'6 9.2
2017-Sep-10 04:24N 38°34' W 009°38'3 8.9
2017-Sep-10 04:01N 38°35' W 009°42'5 9.0
2017-Sep-10 03:30N 38°37' W 009°47'  

Dump ship's entire track history